Time;durP1;ratioP1;P1;durP2;ratioP2;P2;SDS_P1;SDS_P2;PMS_P1;PMS_P2;Temp;Humidity;BMP_temperature;BMP_pressure;BME280_temperature;BME280_humidity;BME280_pressure;Samples;Min_cycle;Max_cycle;Signal;HPM_P1;HPM_P2
2022/09/04 00:02:04;;;;;;;;;;;;;;;14.35;88.00;151257.84;1693861;84;20448;-62
2022/09/04 00:04:50;;;;;;;;;;;;;;;14.33;88.72;151255.25;1693724;84;20192;-62
2022/09/04 00:07:23;;;;;;;;;;;;;;;14.45;88.45;151283.84;1663626;86;20189;-62
2022/09/04 00:10:02;;;;;;;;;;;;;;;14.52;88.26;151302.11;1634561;87;21272;-62
2022/09/04 00:12:33;;;;;;;;;;;;;;;14.57;88.20;151315.09;1634403;86;20139;-61
2022/09/04 00:15:06;;;;;;;;;;;;;;;14.64;87.90;151330.70;1650150;87;20190;-71
2022/09/04 00:17:45;;;;;;;;;;;;;;;14.68;88.13;151342.44;1655144;84;20781;-70
2022/09/04 00:20:18;;;;;;;;;;;;;;;14.81;87.92;151375.02;1709041;84;20217;-69
2022/09/04 00:22:49;;;;;;;;;;;;;;;14.85;87.09;151384.14;1692149;84;21275;-71
2022/09/04 00:25:19;;;;;;;;;;;;;;;14.86;86.95;151388.03;1709075;83;20214;-71
2022/09/04 00:27:47;;;;;;;;;;;;;;;14.89;86.78;151394.55;1709089;84;20273;-70
2022/09/04 00:30:19;;;;;;;;;;;;;;;14.89;86.61;151395.83;1709117;83;20181;-70
2022/09/04 00:32:55;;;;;;;;;;;;;;;14.97;87.00;151415.36;1709552;84;20129;-70
2022/09/04 00:35:30;;;;;;;;;;;;;;;15.10;86.36;151447.91;1709333;84;21254;-70
2022/09/04 00:38:10;;;;;;;;;;;;;;;15.07;85.74;151440.09;1708936;84;20628;-69
2022/09/04 00:41:12;;;;;;;;;;;;;;;14.94;85.95;151406.28;1709076;84;20507;-63
2022/09/04 00:44:06;;;;;;;;;;;;;;;14.89;86.16;151395.83;1647399;87;20178;-64
2022/09/04 00:47:02;;;;;;;;;;;;;;;14.84;86.44;151382.81;1646377;86;20339;-63
2022/09/04 00:49:57;;;;;;;;;;;;;;;14.85;86.76;151385.42;1698708;84;21147;-69
2022/09/04 00:52:44;;;;;;;;;;;;;;;14.82;86.50;151376.34;1687159;84;20133;-69
2022/09/04 00:55:31;;;;;;;;;;;;;;;14.73;86.63;151355.48;1701153;84;20174;-70
2022/09/04 00:58:11;;;;;;;;;;;;;;;14.64;86.65;151330.70;1709483;84;20178;-69
2022/09/04 01:00:38;;;;;;;;;;;;;;;14.52;87.29;151302.11;1709334;84;20189;-68
2022/09/04 01:03:15;;;;;;;;;;;;;;;14.51;87.66;151299.50;1709399;84;21258;-68
2022/09/04 01:06:04;;;;;;;;;;;;;;;14.56;87.83;151312.50;1709063;82;20508;-69
2022/09/04 01:08:55;;;;;;;;;;;;;;;14.59;87.57;151320.31;1705297;84;20189;-69
2022/09/04 01:11:44;;;;;;;;;;;;;;;14.59;87.49;151320.31;1709337;84;20643;-68
2022/09/04 01:14:20;;;;;;;;;;;;;;;14.57;87.31;151315.09;1662935;84;20154;-68
2022/09/04 01:16:53;;;;;;;;;;;;;;;14.54;87.34;151307.30;1709170;84;22262;-68
2022/09/04 01:19:54;;;;;;;;;;;;;;;14.56;87.61;151312.50;1705903;83;20129;-68
2022/09/04 01:22:45;;;;;;;;;;;;;;;14.61;87.72;151325.50;1658494;86;20257;-68
2022/09/04 01:25:28;;;;;;;;;;;;;;;14.72;87.46;151351.61;1658637;86;21048;-68
2022/09/04 01:28:10;;;;;;;;;;;;;;;14.77;86.58;151363.28;1686680;84;20214;-68
2022/09/04 01:30:44;;;;;;;;;;;;;;;14.72;86.54;151352.88;1704398;84;21098;-69
2022/09/04 01:33:24;;;;;;;;;;;;;;;14.64;86.56;151330.70;1703888;84;20244;-68
2022/09/04 01:36:06;;;;;;;;;;;;;;;14.57;87.08;151315.09;1703746;84;20181;-69
2022/09/04 01:38:46;;;;;;;;;;;;;;;14.52;87.41;151302.11;1703661;84;20179;-69
2022/09/04 01:41:16;;;;;;;;;;;;;;;14.56;87.84;151311.19;1704364;84;20167;-68
2022/09/04 01:43:43;;;;;;;;;;;;;;;14.64;88.01;151330.70;1704040;84;21226;-70
2022/09/04 01:46:46;;;;;;;;;;;;;;;14.76;87.88;151362.02;1704111;84;20316;-69
2022/09/04 01:49:22;;;;;;;;;;;;;;;14.83;87.33;151378.94;1704056;84;20491;-68
2022/09/04 01:52:22;;;;;;;;;;;;;;;14.89;87.09;151394.55;1704016;84;38129;-70
2022/09/04 01:55:08;;;;;;;;;;;;;;;14.94;86.89;151406.28;1704064;84;20435;-69
2022/09/04 01:57:56;;;;;;;;;;;;;;;15.00;87.06;151423.16;1704125;84;21124;-70
2022/09/04 02:00:23;;;;;;;;;;;;;;;15.13;86.38;151455.70;1703989;84;20234;-69
2022/09/04 02:03:02;;;;;;;;;;;;;;;15.20;85.90;151471.36;1704018;84;20210;-70
2022/09/04 02:06:00;;;;;;;;;;;;;;;15.27;85.50;151490.91;1695078;84;20181;-69
2022/09/04 02:08:36;;;;;;;;;;;;;;;15.24;84.40;151481.77;1705032;84;20474;-68
2022/09/04 02:11:20;;;;;;;;;;;;;;;15.04;84.54;151432.28;1704973;84;21144;-69
2022/09/04 02:14:03;;;;;;;;;;;;;;;14.84;85.03;151382.81;1704288;83;20171;-64
2022/09/04 02:16:32;;;;;;;;;;;;;;;14.74;85.90;151356.81;1703226;84;20410;-65
2022/09/04 02:19:12;;;;;;;;;;;;;;;14.63;86.13;151329.44;1703783;83;20419;-69
2022/09/04 02:21:43;;;;;;;;;;;;;;;14.52;86.76;151300.78;1703917;84;20141;-70
2022/09/04 02:24:14;;;;;;;;;;;;;;;14.49;87.32;151292.97;1704065;84;21261;-69
2022/09/04 02:26:44;;;;;;;;;;;;;;;14.48;87.55;151291.70;1703420;84;20223;-64
2022/09/04 02:29:27;;;;;;;;;;;;;;;14.47;87.84;151290.38;1703906;84;20221;-65
2022/09/04 02:32:02;;;;;;;;;;;;;;;14.52;87.79;151302.11;1703993;84;20174;-64
2022/09/04 02:34:56;;;;;;;;;;;;;;;14.52;87.45;151302.11;1704289;84;20186;-64
2022/09/04 02:37:43;;;;;;;;;;;;;;;14.53;87.57;151304.70;1703931;84;21234;-63
2022/09/04 02:40:25;;;;;;;;;;;;;;;14.56;87.64;151311.19;1702729;83;20183;-63
2022/09/04 02:43:04;;;;;;;;;;;;;;;14.58;87.70;151317.70;1704252;84;20178;-64
2022/09/04 02:45:46;;;;;;;;;;;;;;;14.57;87.31;151315.09;1703929;84;20185;-64
2022/09/04 02:48:25;;;;;;;;;;;;;;;14.51;87.30;151299.50;1704063;84;20189;-64
2022/09/04 02:51:31;;;;;;;;;;;;;;;14.46;87.52;151286.45;1703759;84;22268;-64
2022/09/04 02:54:13;;;;;;;;;;;;;;;14.42;87.73;151276.05;1703109;84;20187;-63
2022/09/04 02:56:57;;;;;;;;;;;;;;;14.36;87.83;151260.45;1703954;84;20217;-63
2022/09/04 02:59:57;;;;;;;;;;;;;;;14.31;87.93;151250.05;1704388;84;20720;-63
2022/09/04 03:02:39;;;;;;;;;;;;;;;14.29;88.03;151243.53;1703947;84;20181;-64
2022/09/04 03:05:24;;;;;;;;;;;;;;;14.32;88.24;151251.33;1704055;84;23265;-64
2022/09/04 03:08:09;;;;;;;;;;;;;;;14.37;87.87;151263.05;1704492;82;20303;-64
2022/09/04 03:10:48;;;;;;;;;;;;;;;14.29;87.81;151244.84;1704207;82;20577;-63
2022/09/04 03:13:24;;;;;;;;;;;;;;;14.25;88.26;151234.41;1710544;83;20137;-64
2022/09/04 03:16:06;;;;;;;;;;;;;;;14.33;88.56;151255.25;1715342;83;20173;-63
2022/09/04 03:18:55;;;;;;;;;;;;;;;14.52;88.76;151302.11;1716355;83;20181;-63
2022/09/04 03:21:44;;;;;;;;;;;;;;;14.66;87.77;151335.91;1710987;83;20180;-63
2022/09/04 03:24:23;;;;;;;;;;;;;;;14.63;87.32;151328.11;1720427;83;20168;-63
2022/09/04 03:26:54;;;;;;;;;;;;;;;14.49;87.01;151292.97;1720610;83;20593;-63
2022/09/04 03:29:36;;;;;;;;;;;;;;;14.39;86.78;151268.25;1720773;83;20607;-63
2022/09/04 03:32:10;;;;;;;;;;;;;;;14.26;87.10;151237.05;1720709;83;21133;-63
2022/09/04 03:35:01;;;;;;;;;;;;;;;14.12;87.19;151200.59;1720808;83;20132;-63
2022/09/04 03:37:38;;;;;;;;;;;;;;;14.00;87.75;151171.97;1720661;83;20226;-63
2022/09/04 03:40:20;;;;;;;;;;;;;;;13.92;88.39;151151.17;1720551;83;20255;-63
2022/09/04 03:43:15;;;;;;;;;;;;;;;13.94;88.68;151156.38;1682368;83;20208;-63
2022/09/04 03:45:54;;;;;;;;;;;;;;;14.02;88.79;151177.16;1663169;85;21246;-63
2022/09/04 03:48:42;;;;;;;;;;;;;;;14.11;88.18;151199.28;1631439;86;20534;-64
2022/09/04 03:51:24;;;;;;;;;;;;;;;14.08;87.80;151190.20;1696434;83;20145;-63
2022/09/04 03:54:11;;;;;;;;;;;;;;;14.03;88.29;151179.77;1720387;83;20457;-62
2022/09/04 03:56:59;;;;;;;;;;;;;;;14.08;88.59;151190.20;1720869;83;20184;-63
2022/09/04 03:59:53;;;;;;;;;;;;;;;14.14;88.35;151205.81;1720893;82;21288;-62
2022/09/04 04:02:48;;;;;;;;;;;;;;;14.13;88.23;151203.20;1699178;83;20180;-63
2022/09/04 04:05:27;;;;;;;;;;;;;;;14.14;88.56;151205.81;1717914;82;20596;-70
2022/09/04 04:08:14;;;;;;;;;;;;;;;14.15;88.37;151209.73;1707629;82;20174;-63
2022/09/04 04:11:11;;;;;;;;;;;;;;;14.18;88.45;151216.20;1707585;84;20190;-63
2022/09/04 04:14:07;;;;;;;;;;;;;;;14.20;87.65;151221.41;1683374;84;21136;-63
2022/09/04 04:16:55;;;;;;;;;;;;;;;14.13;87.81;151203.20;1686495;85;20506;-63
2022/09/04 04:19:32;;;;;;;;;;;;;;;14.13;88.17;151203.20;1685186;84;20191;-64
2022/09/04 04:22:22;;;;;;;;;;;;;;;14.13;88.18;151203.20;1682001;84;20203;-63
2022/09/04 04:25:10;;;;;;;;;;;;;;;14.21;88.17;151222.73;1681958;84;20219;-64
2022/09/04 04:27:51;;;;;;;;;;;;;;;14.22;87.77;151226.59;1681913;85;21146;-64
2022/09/04 04:30:18;;;;;;;;;;;;;;;14.32;87.88;151252.66;1681989;84;20315;-71
2022/09/04 04:33:11;;;;;;;;;;;;;;;14.40;86.88;151270.84;1681858;84;20179;-71
2022/09/04 04:35:47;;;;;;;;;;;;;;;14.41;87.28;151274.78;1681898;85;20223;-71
2022/09/04 04:38:23;;;;;;;;;;;;;;;14.46;87.17;151286.45;1682030;84;20191;-64
2022/09/04 04:40:56;;;;;;;;;;;;;;;14.54;87.04;151307.30;1681841;85;22176;-64
2022/09/04 04:43:35;;;;;;;;;;;;;;;14.57;86.08;151315.09;1681871;85;20171;-63
2022/09/04 04:46:21;;;;;;;;;;;;;;;14.56;85.86;151312.50;1681886;84;20147;-63
2022/09/04 04:49:17;;;;;;;;;;;;;;;14.56;85.81;151312.50;1633711;85;20636;-64
2022/09/04 04:52:05;;;;;;;;;;;;;;;14.58;85.41;151317.70;1681581;85;20219;-63
2022/09/04 04:54:35;;;;;;;;;;;;;;;14.63;85.68;151328.11;1681899;85;21253;-64
2022/09/04 04:57:28;;;;;;;;;;;;;;;14.68;84.95;151341.11;1681400;85;20084;-64
2022/09/04 05:00:07;;;;;;;;;;;;;;;14.66;84.53;151337.23;1682023;84;20187;-70
2022/09/04 05:02:40;;;;;;;;;;;;;;;14.63;84.52;151328.11;1682003;85;20206;-70
2022/09/04 05:05:29;;;;;;;;;;;;;;;14.63;84.20;151328.11;1669173;85;20246;-71
2022/09/04 05:08:11;;;;;;;;;;;;;;;14.64;84.48;151330.70;1656859;86;21154;-71
2022/09/04 05:10:45;;;;;;;;;;;;;;;14.77;83.56;151364.61;1628467;86;20189;-70
2022/09/04 05:13:21;;;;;;;;;;;;;;;14.74;82.94;151358.09;1644057;86;20146;-71
2022/09/04 05:16:11;;;;;;;;;;;;;;;14.70;83.32;151346.31;1639508;87;20725;-70
2022/09/04 05:18:50;;;;;;;;;;;;;;;14.73;83.41;151355.48;1639437;86;20223;-71
2022/09/04 05:21:39;;;;;;;;;;;;;;;14.84;83.14;151382.81;1640012;86;21963;-71
2022/09/04 05:24:21;;;;;;;;;;;;;;;14.98;83.50;151417.95;1611864;89;20210;-71
2022/09/04 05:27:01;;;;;;;;;;;;;;;15.17;81.73;151464.83;1650487;85;20192;-71
2022/09/04 05:29:31;;;;;;;;;;;;;;;15.25;80.88;151485.69;1639882;87;20984;-70
2022/09/04 05:32:18;;;;;;;;;;;;;;;15.32;80.60;151502.58;1639351;86;20298;-70
2022/09/04 05:34:54;;;;;;;;;;;;;;;15.44;80.64;151533.84;1639840;87;21106;-72
2022/09/04 05:37:41;;;;;;;;;;;;;;;15.64;79.29;151582.02;1639835;87;20127;-70
2022/09/04 05:40:20;;;;;;;;;;;;;;;15.64;78.57;151583.34;1639567;86;20171;-70
2022/09/04 05:43:09;;;;;;;;;;;;;;;15.66;77.53;151588.55;1639310;87;20493;-70
2022/09/04 05:45:46;;;;;;;;;;;;;;;15.57;77.68;151566.41;1621630;87;20191;-71
2022/09/04 05:48:19;;;;;;;;;;;;;;;15.56;78.22;151562.47;1639635;87;21114;-70
2022/09/04 05:51:02;;;;;;;;;;;;;;;15.74;77.69;151609.36;1612084;89;20177;-70
2022/09/04 05:53:47;;;;;;;;;;;;;;;15.82;77.38;151627.63;1675323;85;20222;-70
2022/09/04 05:56:27;;;;;;;;;;;;;;;16.00;77.07;151673.25;1674762;85;20138;-70
2022/09/04 05:59:03;;;;;;;;;;;;;;;16.03;76.28;151682.39;1645655;86;20186;-70
2022/09/04 06:01:52;;;;;;;;;;;;;;;16.16;75.72;151713.62;1639454;86;21168;-70
2022/09/04 06:04:44;;;;;;;;;;;;;;;16.20;75.09;151722.77;1639605;87;20452;-71
2022/09/04 06:07:21;;;;;;;;;;;;;;;16.31;74.35;151752.72;1672646;83;20472;-70
2022/09/04 06:10:00;;;;;;;;;;;;;;;16.40;73.74;151773.55;1687274;83;20218;-69
2022/09/04 06:12:53;;;;;;;;;;;;;;;16.84;73.28;151885.62;1686254;84;20597;-69
2022/09/04 06:15:30;;;;;;;;;;;;;;;17.25;71.58;151987.36;1682015;85;21152;-69
2022/09/04 06:18:25;;;;;;;;;;;;;;;17.86;71.38;152142.52;1681617;84;21161;-70
2022/09/04 06:21:06;;;;;;;;;;;;;;;18.27;68.59;152244.33;1696816;84;20189;-70
2022/09/04 06:23:35;;;;;;;;;;;;;;;18.36;67.26;152267.84;1704586;84;20707;-70
2022/09/04 06:26:29;;;;;;;;;;;;;;;18.46;66.20;152292.62;1702045;84;20262;-70
2022/09/04 06:29:30;;;;;;;;;;;;;;;18.49;65.60;152299.12;1701769;84;21150;-69
2022/09/04 06:32:06;;;;;;;;;;;;;;;18.55;65.30;152314.77;1702197;84;20211;-70
2022/09/04 06:35:08;;;;;;;;;;;;;;;18.69;64.02;152351.31;1702386;84;20144;-69
2022/09/04 06:37:47;;;;;;;;;;;;;;;18.68;63.86;152347.38;1701383;84;20210;-69
2022/09/04 06:40:18;;;;;;;;;;;;;;;18.66;64.22;152342.16;1702728;84;20115;-69
2022/09/04 06:43:05;;;;;;;;;;;;;;;18.60;64.13;152329.13;1701991;84;21152;-70
2022/09/04 06:45:52;;;;;;;;;;;;;;;18.61;63.85;152330.45;1702181;84;20190;-71
2022/09/04 06:48:44;;;;;;;;;;;;;;;18.82;63.33;152383.94;1702348;84;20182;-70
2022/09/04 06:51:52;;;;;;;;;;;;;;;18.90;63.09;152404.84;1641652;87;20197;-70
2022/09/04 06:54:25;;;;;;;;;;;;;;;19.04;62.82;152438.81;1610977;88;20454;-69
2022/09/04 06:56:56;;;;;;;;;;;;;;;19.13;62.07;152461.00;1683865;84;22723;-70
2022/09/04 06:59:32;;;;;;;;;;;;;;;19.08;62.17;152449.23;1702064;84;20182;-70
2022/09/04 07:02:21;;;;;;;;;;;;;;;19.02;61.67;152434.92;1689015;84;20177;-69
2022/09/04 07:04:54;;;;;;;;;;;;;;;19.09;61.78;152451.84;1702083;84;20187;-70
2022/09/04 07:07:31;;;;;;;;;;;;;;;19.04;62.16;152440.13;1673920;85;20217;-71
2022/09/04 07:10:09;;;;;;;;;;;;;;;19.13;61.50;152462.33;1673992;85;21229;-70
2022/09/04 07:13:00;;;;;;;;;;;;;;;19.19;61.19;152476.64;1650422;86;20197;-66
2022/09/04 07:15:34;;;;;;;;;;;;;;;19.19;60.16;152476.64;1702714;84;20181;-66
2022/09/04 07:18:27;;;;;;;;;;;;;;;19.09;59.85;152450.56;1701140;84;20550;-67
2022/09/04 07:21:01;;;;;;;;;;;;;;;18.95;60.16;152415.28;1711550;83;20183;-66
2022/09/04 07:23:43;;;;;;;;;;;;;;;18.87;59.95;152396.97;1721034;83;21989;-66
2022/09/04 07:26:16;;;;;;;;;;;;;;;18.89;60.39;152400.91;1720515;83;20616;-66
2022/09/04 07:28:51;;;;;;;;;;;;;;;19.06;59.90;152442.75;1720449;83;20228;-65
2022/09/04 07:31:25;;;;;;;;;;;;;;;19.07;59.28;152446.63;1720592;83;20170;-66
2022/09/04 07:34:05;;;;;;;;;;;;;;;19.02;59.25;152433.59;1720359;83;20208;-65
2022/09/04 07:36:50;;;;;;;;;;;;;;;19.01;59.72;152430.98;1720476;83;21379;-66
2022/09/04 07:39:35;;;;;;;;;;;;;;;19.14;59.41;152464.94;1622110;88;20182;-70
2022/09/04 07:42:32;;;;;;;;;;;;;;;19.33;57.80;152513.22;1683572;83;20185;-70
2022/09/04 07:45:15;;;;;;;;;;;;;;;19.42;58.38;152535.42;1720554;83;20470;-69
2022/09/04 07:47:45;;;;;;;;;;;;;;;19.67;56.71;152596.75;1704660;83;20193;-69
2022/09/04 07:50:15;;;;;;;;;;;;;;;19.69;56.38;152603.30;1720558;83;21976;-69
2022/09/04 07:52:58;;;;;;;;;;;;;;;19.67;56.15;152596.75;1720563;83;20184;-71
2022/09/04 07:55:32;;;;;;;;;;;;;;;19.57;56.43;152571.98;1720369;83;20184;-69
2022/09/04 07:58:18;;;;;;;;;;;;;;;19.64;56.01;152590.25;1720107;83;20168;-70
2022/09/04 08:01:10;;;;;;;;;;;;;;;19.67;55.56;152596.75;1720578;83;20123;-69
2022/09/04 08:03:49;;;;;;;;;;;;;;;19.65;55.34;152592.86;1720927;83;21201;-70
2022/09/04 08:06:21;;;;;;;;;;;;;;;19.71;55.04;152608.52;1715309;82;20175;-70
2022/09/04 08:09:18;;;;;;;;;;;;;;;19.69;54.42;152602.02;1708842;84;20137;-72
2022/09/04 08:12:05;;;;;;;;;;;;;;;19.61;54.50;152582.42;1708590;84;21944;-70
2022/09/04 08:14:53;;;;;;;;;;;;;;;19.68;54.23;152599.41;1720501;83;20164;-69
2022/09/04 08:17:41;;;;;;;;;;;;;;;19.78;54.68;152624.17;1720632;83;21143;-69
2022/09/04 08:20:11;;;;;;;;;;;;;;;19.84;54.25;152641.16;1719083;82;20192;-70
2022/09/04 08:22:59;;;;;;;;;;;;;;;19.97;54.77;152673.86;1668291;84;20188;-71
2022/09/04 08:25:43;;;;;;;;;;;;;;;20.14;53.82;152715.66;1639522;87;20186;-69
2022/09/04 08:28:26;;;;;;;;;;;;;;;20.17;53.30;152723.50;1704923;84;20230;-69
2022/09/04 08:31:23;;;;;;;;;;;;;;;20.13;53.89;152714.37;1704852;84;21113;-70
2022/09/04 08:34:20;;;;;;;;;;;;;;;20.06;52.93;152696.06;1704677;84;20170;-70
2022/09/04 08:36:53;;;;;;;;;;;;;;;20.12;53.48;152710.44;1704994;84;20198;-70
2022/09/04 08:39:29;;;;;;;;;;;;;;;20.24;52.40;152741.81;1704037;84;20174;-70
2022/09/04 08:42:35;;;;;;;;;;;;;;;20.33;51.70;152765.30;1686809;85;20210;-69
2022/09/04 08:45:14;;;;;;;;;;;;;;;20.42;51.22;152786.19;1668060;86;21253;-70
2022/09/04 08:47:57;;;;;;;;;;;;;;;20.56;51.63;152821.50;1673022;84;20182;-69
2022/09/04 08:50:50;;;;;;;;;;;;;;;20.52;52.92;152812.34;1704398;84;20185;-70
2022/09/04 08:53:46;;;;;;;;;;;;;;;20.61;51.49;152835.84;1668295;84;20417;-70
2022/09/04 08:56:27;;;;;;;;;;;;;;;20.75;50.81;152869.83;1668000;84;20193;-70
2022/09/04 08:59:17;;;;;;;;;;;;;;;20.91;50.52;152909.09;1668025;86;21116;-70
2022/09/04 09:01:51;;;;;;;;;;;;;;;21.08;51.15;152953.48;1668155;84;20129;-70
2022/09/04 09:04:42;;;;;;;;;;;;;;;21.22;51.50;152988.81;1705023;84;20135;-70
2022/09/04 09:07:31;;;;;;;;;;;;;;;21.24;51.52;152992.72;1668009;84;20168;-70
2022/09/04 09:10:17;;;;;;;;;;;;;;;21.33;49.09;153017.55;1704834;83;20190;-70
2022/09/04 09:12:57;;;;;;;;;;;;;;;21.29;48.51;153007.09;1696259;84;21302;-70
2022/09/04 09:15:47;;;;;;;;;;;;;;;21.34;48.60;153018.88;1703821;84;20181;-70
2022/09/04 09:18:34;;;;;;;;;;;;;;;21.25;49.63;152996.66;1703883;84;20143;-70
2022/09/04 09:21:22;;;;;;;;;;;;;;;21.12;51.10;152963.98;1700672;84;20203;-65
2022/09/04 09:24:14;;;;;;;;;;;;;;;21.15;48.91;152971.81;1693670;84;20178;-65
2022/09/04 09:27:17;;;;;;;;;;;;;;;21.17;48.90;152977.05;1694302;84;21149;-65
2022/09/04 09:30:07;;;;;;;;;;;;;;;21.29;50.35;153005.78;1693856;84;20203;-65
2022/09/04 09:33:01;;;;;;;;;;;;;;;21.23;50.91;152990.09;1664853;84;20185;-65
2022/09/04 09:35:35;;;;;;;;;;;;;;;20.99;49.73;152929.98;1693875;84;21043;-66
2022/09/04 09:38:31;;;;;;;;;;;;;;;20.87;48.81;152901.22;1693884;84;20443;-65
2022/09/04 09:41:11;;;;;;;;;;;;;;;20.89;48.04;152905.16;1694194;84;21119;-66
2022/09/04 09:44:08;;;;;;;;;;;;;;;20.95;48.00;152919.53;1694063;84;20206;-67
2022/09/04 09:47:00;;;;;;;;;;;;;;;21.12;48.60;152963.98;1693799;84;20207;-66
2022/09/04 09:49:50;;;;;;;;;;;;;;;21.30;48.27;153008.38;1635631;86;21690;-65
2022/09/04 09:52:27;;;;;;;;;;;;;;;21.34;49.48;153018.88;1635343;87;20156;-66
2022/09/04 09:55:13;;;;;;;;;;;;;;;21.62;49.70;153089.45;1671165;84;21330;-67
2022/09/04 09:58:17;;;;;;;;;;;;;;;21.65;47.81;153097.34;1693771;84;20500;-66
2022/09/04 10:00:58;;;;;;;;;;;;;;;21.57;46.01;153076.39;1693709;84;20464;-66
2022/09/04 10:03:40;;;;;;;;;;;;;;;21.41;46.38;153037.16;1693978;84;20223;-65
2022/09/04 10:06:31;;;;;;;;;;;;;;;21.46;47.67;153050.22;1661257;84;20216;-66
2022/09/04 10:09:08;;;;;;;;;;;;;;;21.46;47.85;153050.22;1634848;86;21214;-65
2022/09/04 10:11:57;;;;;;;;;;;;;;;21.38;47.08;153029.33;1606985;89;20207;-67
2022/09/04 10:14:33;;;;;;;;;;;;;;;21.29;46.68;153005.78;1632682;88;20215;-66
2022/09/04 10:17:09;;;;;;;;;;;;;;;21.20;45.72;152983.55;1650317;87;20489;-65
2022/09/04 10:19:57;;;;;;;;;;;;;;;21.17;45.94;152977.05;1693197;84;20175;-69
2022/09/04 10:22:28;;;;;;;;;;;;;;;21.31;46.70;153011.00;1707366;83;21162;-68
2022/09/04 10:25:12;;;;;;;;;;;;;;;21.40;47.41;153034.55;1711721;83;20210;-68
2022/09/04 10:28:10;;;;;;;;;;;;;;;21.65;46.16;153096.02;1699274;83;20113;-70
2022/09/04 10:30:58;;;;;;;;;;;;;;;21.79;46.47;153131.36;1712376;83;20181;-69
2022/09/04 10:33:48;;;;;;;;;;;;;;;21.77;45.58;153126.08;1712274;83;20501;-69
2022/09/04 10:36:29;;;;;;;;;;;;;;;21.64;44.81;153094.69;1712343;83;21475;-70
2022/09/04 10:41:48;;;;;;;;;;;;;;;21.88;44.60;153154.88;1712860;83;20206;-70
2022/09/04 10:44:27;;;;;;;;;;;;;;;22.22;44.14;153241.20;1712467;83;20142;-69
2022/09/04 10:47:10;;;;;;;;;;;;;;;22.48;43.96;153306.64;1711322;83;20181;-68
2022/09/04 10:49:58;;;;;;;;;;;;;;;22.42;44.24;153290.86;1712202;83;22281;-70
2022/09/04 10:53:01;;;;;;;;;;;;;;;22.37;43.38;153277.78;1712401;83;20137;-70
2022/09/04 10:55:52;;;;;;;;;;;;;;;22.32;43.02;153267.33;1712354;83;20202;-69
2022/09/04 10:58:38;;;;;;;;;;;;;;;22.57;41.77;153330.16;1712480;83;20146;-70
2022/09/04 11:01:18;;;;;;;;;;;;;;;22.77;41.03;153379.88;1712121;83;20218;-70
2022/09/04 11:04:12;;;;;;;;;;;;;;;22.84;40.89;153398.19;1712599;83;21157;-69
2022/09/04 11:06:48;;;;;;;;;;;;;;;22.74;41.31;153372.03;1701110;83;20446;-67
2022/09/04 11:09:36;;;;;;;;;;;;;;;22.23;41.92;153243.81;1712357;83;20428;-66
2022/09/04 11:12:21;;;;;;;;;;;;;;;21.80;42.25;153133.97;1653744;83;20192;-67
2022/09/04 11:15:10;;;;;;;;;;;;;;;21.52;43.01;153064.63;1683730;85;20197;-66
2022/09/04 11:18:02;;;;;;;;;;;;;;;21.40;43.02;153033.22;1683379;85;21308;-69
2022/09/04 11:20:50;;;;;;;;;;;;;;;21.41;43.25;153037.16;1683549;85;20614;-69
2022/09/04 11:23:41;;;;;;;;;;;;;;;21.65;43.41;153097.34;1660882;85;20233;-69
2022/09/04 11:26:22;;;;;;;;;;;;;;;21.74;42.49;153120.86;1613301;89;20627;-70
2022/09/04 11:29:11;;;;;;;;;;;;;;;21.78;42.30;153130.03;1659664;85;20470;-70
2022/09/04 11:31:51;;;;;;;;;;;;;;;21.70;42.07;153110.41;1658951;86;21210;-70
2022/09/04 11:34:21;;;;;;;;;;;;;;;21.67;42.35;153102.56;1612990;89;20146;-70
2022/09/04 11:37:04;;;;;;;;;;;;;;;21.88;42.42;153154.88;1612446;88;20202;-70
2022/09/04 11:39:38;;;;;;;;;;;;;;;22.10;42.04;153211.08;1643039;86;20476;-70
2022/09/04 11:42:19;;;;;;;;;;;;;;;22.12;42.06;153215.02;1613281;89;20208;-70
2022/09/04 11:44:59;;;;;;;;;;;;;;;22.15;41.73;153222.86;1659522;85;21773;-69
2022/09/04 11:47:30;;;;;;;;;;;;;;;22.17;41.06;153228.09;1659552;84;20181;-70
2022/09/04 11:50:15;;;;;;;;;;;;;;;22.09;40.98;153208.47;1612994;89;20209;-70
2022/09/04 11:52:49;;;;;;;;;;;;;;;22.23;40.94;153243.81;1644103;87;20634;-69
2022/09/04 11:55:19;;;;;;;;;;;;;;;22.38;40.73;153280.41;1613160;87;20171;-69
2022/09/04 11:58:08;;;;;;;;;;;;;;;22.39;41.33;153284.34;1614710;88;20667;-70
2022/09/04 12:00:41;;;;;;;;;;;;;;;22.35;41.90;153272.56;1659294;86;20462;-67
2022/09/04 12:03:31;;;;;;;;;;;;;;;22.43;42.07;153293.47;1614565;88;20202;-67
2022/09/04 12:06:14;;;;;;;;;;;;;;;22.37;40.85;153279.12;1647901;84;20464;-66
2022/09/04 12:09:12;;;;;;;;;;;;;;;22.25;40.57;153249.03;1680919;85;20183;-66
2022/09/04 12:11:42;;;;;;;;;;;;;;;22.28;40.53;153256.87;1681027;85;21384;-69
2022/09/04 12:14:45;;;;;;;;;;;;;;;22.51;39.45;153314.48;1643075;85;20451;-70
2022/09/04 12:17:33;;;;;;;;;;;;;;;22.45;39.89;153300.03;1703640;84;20185;-70
2022/09/04 12:20:22;;;;;;;;;;;;;;;22.40;40.93;153286.97;1703969;84;20178;-65
2022/09/04 12:23:17;;;;;;;;;;;;;;;22.36;42.17;153275.17;1697615;84;20134;-67
2022/09/04 12:26:04;;;;;;;;;;;;;;;22.67;41.90;153353.73;1693629;84;23092;-66
2022/09/04 12:28:41;;;;;;;;;;;;;;;22.83;41.33;153395.56;1693816;84;20246;-70
2022/09/04 12:31:34;;;;;;;;;;;;;;;22.89;41.60;153411.30;1690084;84;20626;-69
2022/09/04 12:34:27;;;;;;;;;;;;;;;22.91;41.23;153413.91;1693768;84;20226;-66
2022/09/04 12:37:04;;;;;;;;;;;;;;;22.75;39.08;153374.66;1693590;84;20178;-66
2022/09/04 12:39:53;;;;;;;;;;;;;;;22.38;39.79;153280.41;1694251;84;21138;-66
2022/09/04 12:42:27;;;;;;;;;;;;;;;22.30;39.74;153262.11;1693792;84;20115;-68
2022/09/04 12:45:04;;;;;;;;;;;;;;;22.14;39.68;153220.25;1693692;84;20487;-66
2022/09/04 12:47:50;;;;;;;;;;;;;;;22.09;40.36;153207.19;1693657;84;20502;-66
2022/09/04 12:50:31;;;;;;;;;;;;;;;22.27;40.06;153252.94;1693954;84;20163;-66
2022/09/04 12:53:14;;;;;;;;;;;;;;;22.53;39.76;153319.70;1693673;84;21281;-67
2022/09/04 12:56:05;;;;;;;;;;;;;;;22.63;41.24;153344.56;1693775;84;20198;-67
2022/09/04 12:58:53;;;;;;;;;;;;;;;22.67;41.72;153355.02;1694251;84;20209;-65
2022/09/04 13:01:27;;;;;;;;;;;;;;;22.71;40.19;153364.19;1691510;84;20634;-69
2022/09/04 13:03:59;;;;;;;;;;;;;;;22.60;39.38;153338.00;1693804;84;20186;-69
2022/09/04 13:06:49;;;;;;;;;;;;;;;22.44;39.79;153296.14;1672912;84;21195;-69
2022/09/04 13:09:35;;;;;;;;;;;;;;;22.32;40.58;153267.33;1662893;85;20178;-66
2022/09/04 13:12:14;;;;;;;;;;;;;;;22.30;41.45;153262.11;1662659;86;20224;-66
2022/09/04 13:15:01;;;;;;;;;;;;;;;22.36;42.22;153275.17;1630781;86;20195;-67
2022/09/04 13:17:35;;;;;;;;;;;;;;;22.48;41.46;153306.64;1630908;88;20904;-67
2022/09/04 13:20:14;;;;;;;;;;;;;;;22.54;40.52;153322.31;1622670;88;23138;-66
2022/09/04 13:23:03;;;;;;;;;;;;;;;22.60;40.18;153338.00;1635898;86;20194;-66
2022/09/04 13:25:56;;;;;;;;;;;;;;;22.55;39.18;153323.66;1645193;87;20215;-66
2022/09/04 13:28:59;;;;;;;;;;;;;;;22.38;39.81;153281.73;1645228;85;20754;-68
2022/09/04 13:32:00;;;;;;;;;;;;;;;22.38;39.91;153280.41;1608286;88;20206;-70
2022/09/04 13:34:42;;;;;;;;;;;;;;;22.35;39.94;153272.56;1645180;87;22160;-69
2022/09/04 13:37:13;;;;;;;;;;;;;;;22.31;40.00;153263.39;1645014;87;20178;-69
2022/09/04 13:40:15;;;;;;;;;;;;;;;22.34;40.07;153271.28;1644946;85;20223;-69
2022/09/04 13:42:49;;;;;;;;;;;;;;;22.38;40.47;153280.41;1645228;87;20250;-70
2022/09/04 13:45:22;;;;;;;;;;;;;;;22.64;39.82;153345.84;1645267;87;20477;-67
2022/09/04 13:47:49;;;;;;;;;;;;;;;22.60;39.30;153338.00;1645530;85;22124;-66
2022/09/04 13:50:23;;;;;;;;;;;;;;;22.49;39.40;153309.25;1644200;87;20322;-66
2022/09/04 13:52:56;;;;;;;;;;;;;;;22.45;39.69;153298.75;1645285;87;20479;-66
2022/09/04 13:55:37;;;;;;;;;;;;;;;22.51;39.10;153314.48;1645757;87;20176;-66
2022/09/04 13:58:20;;;;;;;;;;;;;;;22.55;39.10;153324.94;1645150;85;20211;-65
2022/09/04 14:00:51;;;;;;;;;;;;;;;22.59;39.26;153335.39;1645171;85;22194;-68